Time;durP1;ratioP1;P1;durP2;ratioP2;P2;SDS_P1;SDS_P2;PMS_P1;PMS_P2;Temp;Humidity;BMP_temperature;BMP_pressure;BME280_temperature;BME280_humidity;BME280_pressure;Samples;Min_cycle;Max_cycle;Signal;HPM_P1;HPM_P2
2021/06/27 00:01:26;;;;;;;2.50;2.30;;;;;;;22.14;56.42;102052.91;5102554;28;20405;-62
2021/06/27 00:03:53;;;;;;;2.40;2.20;;;;;;;22.16;56.38;102057.06;5102880;28;20131;-62
2021/06/27 00:06:19;;;;;;;2.53;2.33;;;;;;;22.17;56.38;102052.59;5103167;28;20046;-62
2021/06/27 00:08:45;;;;;;;2.60;2.40;;;;;;;22.14;56.38;102051.09;5100388;28;20043;-63
2021/06/27 00:11:12;;;;;;;2.47;2.28;;;;;;;22.15;56.67;102052.75;5102272;28;20097;-62
2021/06/27 00:13:41;;;;;;;2.38;2.20;;;;;;;22.15;56.39;102047.44;5104895;28;20016;-62
2021/06/27 00:16:08;;;;;;;2.70;2.50;;;;;;;22.12;56.03;102046.97;5103091;28;20507;-62
2021/06/27 00:18:34;;;;;;;2.95;2.67;;;;;;;22.13;56.38;102045.97;5103890;28;20394;-62
2021/06/27 00:21:03;;;;;;;2.60;2.40;;;;;;;22.14;56.40;102043.13;5104550;28;20031;-62
2021/06/27 00:23:32;;;;;;;2.70;2.50;;;;;;;22.15;56.31;102046.63;5105166;28;20042;-62
2021/06/27 00:25:59;;;;;;;2.78;2.58;;;;;;;22.11;56.22;102037.34;5107507;28;20457;-62
2021/06/27 00:28:26;;;;;;;2.60;2.40;;;;;;;22.13;56.07;102038.00;5108892;28;20043;-62
2021/06/27 00:30:53;;;;;;;2.65;2.45;;;;;;;22.12;56.35;102041.66;5107982;28;20117;-62
2021/06/27 00:33:20;;;;;;;2.55;2.35;;;;;;;22.11;56.40;102046.13;5088803;28;20039;-62
2021/06/27 00:35:46;;;;;;;2.80;2.60;;;;;;;22.12;56.27;102046.97;5108226;28;20184;-62
2021/06/27 00:38:12;;;;;;;2.60;2.40;;;;;;;22.11;56.25;102037.34;5106806;28;20122;-62
2021/06/27 00:40:38;;;;;;;2.50;2.30;;;;;;;22.10;56.41;102046.28;5107649;28;20078;-62
2021/06/27 00:43:06;;;;;;;2.53;2.33;;;;;;;22.11;56.49;102046.13;5108252;28;20121;-62
2021/06/27 00:45:32;;;;;;;3.03;2.80;;;;;;;22.10;56.14;102041.81;5107360;28;20031;-62
2021/06/27 00:47:59;;;;;;;2.47;2.28;;;;;;;22.10;56.42;102043.63;5108725;28;20126;-62
2021/06/27 00:50:31;;;;;;;2.60;2.40;;;;;;;22.09;56.50;102032.19;5090398;28;20306;-62
2021/06/27 00:52:58;;;;;;;3.00;2.70;;;;;;;22.09;56.30;102034.84;5106531;28;20027;-62
2021/06/27 00:55:24;;;;;;;2.70;2.50;;;;;;;22.09;56.20;102042.81;5109236;28;20035;-62
2021/06/27 00:57:52;;;;;;;2.70;2.50;;;;;;;22.08;56.09;102032.34;5105855;28;20035;-62
2021/06/27 01:00:21;;;;;;;2.45;2.25;;;;;;;22.07;56.23;102028.84;5086343;28;20047;-62
2021/06/27 01:02:47;;;;;;;;;;;;;;;22.09;56.17;102034.03;5107141;28;20028;-62
2021/06/27 01:05:16;;;;;;;2.60;2.40;;;;;;;22.08;56.47;102027.03;5107501;28;19921;-62
2021/06/27 01:07:41;;;;;;;2.75;2.55;;;;;;;22.08;56.54;102035.00;5104773;28;20287;-62
2021/06/27 01:10:08;;;;;;;2.65;2.45;;;;;;;22.08;56.28;102029.69;5107957;28;20746;-63
2021/06/27 01:12:34;;;;;;;2.92;2.63;;;;;;;22.06;56.14;102029.03;5107864;28;20718;-63
2021/06/27 01:15:00;;;;;;;2.50;2.30;;;;;;;22.08;56.56;102024.38;5107018;28;20039;-63
2021/06/27 01:17:27;;;;;;;2.30;2.10;;;;;;;22.07;56.33;102028.03;5108821;28;20047;-62
2021/06/27 01:19:53;;;;;;;2.42;2.22;;;;;;;22.07;56.23;102036.00;5102923;28;20039;-62
2021/06/27 01:22:18;;;;;;;2.50;2.30;;;;;;;22.06;56.45;102032.50;5107660;28;20042;-62
2021/06/27 01:24:44;;;;;;;2.40;2.20;;;;;;;22.03;56.57;102025.69;5107535;28;20389;-63
2021/06/27 01:27:10;;;;;;;2.50;2.30;;;;;;;22.00;56.30;102022.53;5107574;28;20035;-62
2021/06/27 01:29:35;;;;;;;2.45;2.25;;;;;;;22.06;56.49;102023.72;5107656;28;20046;-62
2021/06/27 01:32:01;;;;;;;2.42;2.22;;;;;;;22.05;56.24;102027.38;5107878;28;20111;-62
2021/06/27 01:34:27;;;;;;;1.90;1.80;;;;;;;22.05;56.11;102022.06;5105279;28;20072;-62
2021/06/27 01:36:52;;;;;;;2.88;2.20;;;;;;;22.04;56.50;102018.56;5107334;28;20497;-63
2021/06/27 01:39:18;;;;;;;2.38;2.20;;;;;;;22.02;56.26;102018.72;5106768;28;20039;-63
2021/06/27 01:41:48;;;;;;;2.33;2.13;;;;;;;22.02;56.18;102007.28;5107567;28;20038;-62
2021/06/27 01:44:15;;;;;;;1.80;1.70;;;;;;;22.01;56.43;102019.72;5104271;28;20137;-62
2021/06/27 01:46:41;;;;;;;1.55;1.48;;;;;;;22.02;56.51;102017.91;5105995;28;20032;-62
2021/06/27 01:49:06;;;;;;;1.60;1.50;;;;;;;22.02;56.51;102013.41;5106758;28;20109;-62
2021/06/27 01:51:32;;;;;;;2.10;2.00;;;;;;;22.01;56.52;102014.41;5087948;28;20036;-62
2021/06/27 01:53:58;;;;;;;1.80;1.70;;;;;;;22.02;56.36;102007.28;5106843;28;20020;-62
2021/06/27 01:56:23;;;;;;;1.90;1.80;;;;;;;22.00;56.26;102018.06;5088747;28;20108;-62
2021/06/27 01:58:52;;;;;;;1.90;1.80;;;;;;;21.99;56.26;102013.75;5104828;28;20031;-62
2021/06/27 02:01:26;;;;;;;1.83;1.73;;;;;;;22.01;56.48;102016.22;5107278;28;20031;-62
2021/06/27 02:03:52;;;;;;;1.75;1.65;;;;;;;22.00;56.22;102012.75;5089079;28;20433;-62
2021/06/27 02:06:23;;;;;;;1.40;1.40;;;;;;;22.00;56.50;102010.09;5088743;28;20067;-63
2021/06/27 02:08:50;;;;;;;1.88;1.77;;;;;;;21.99;56.60;102008.44;5105377;28;20052;-62
2021/06/27 02:11:19;;;;;;;1.63;1.52;;;;;;;21.98;56.48;102003.31;5105017;28;20024;-62
2021/06/27 02:13:45;;;;;;;1.38;1.38;;;;;;;21.98;56.47;102000.66;5106826;28;20642;-62
2021/06/27 02:16:12;;;;;;;1.80;1.70;;;;;;;21.95;56.43;102001.81;5105984;28;20047;-62
2021/06/27 02:18:42;;;;;;;1.48;1.48;;;;;;;21.98;56.47;101998.00;5107224;28;20032;-62
2021/06/27 02:21:11;;;;;;;1.55;1.45;;;;;;;21.98;56.36;101993.53;5086448;28;20043;-62
2021/06/27 02:23:37;;;;;;;1.60;1.50;;;;;;;21.98;56.53;101996.19;5106282;28;20047;-62
2021/06/27 02:26:03;;;;;;;1.52;1.48;;;;;;;21.97;56.21;101993.69;5105354;28;20031;-62
2021/06/27 02:28:30;;;;;;;1.75;1.65;;;;;;;21.97;56.43;101997.19;5106613;28;20044;-62
2021/06/27 02:30:56;;;;;;;1.20;1.20;;;;;;;21.96;56.31;101998.19;5106172;28;20052;-62
2021/06/27 02:33:22;;;;;;;1.60;1.50;;;;;;;21.96;56.52;101998.19;5107454;28;20125;-63
2021/06/27 02:35:47;;;;;;;1.58;1.50;;;;;;;21.96;56.21;102000.81;5103586;28;20513;-62
2021/06/27 02:38:13;;;;;;;1.50;1.50;;;;;;;21.95;56.49;102001.81;5105677;28;20750;-62
2021/06/27 02:40:40;;;;;;;1.25;1.25;;;;;;;21.94;56.23;101994.03;5088313;28;20035;-63
2021/06/27 02:43:06;;;;;;;1.52;1.42;;;;;;;21.96;56.45;101995.53;5101866;28;20067;-62
2021/06/27 02:45:31;;;;;;;1.52;1.42;;;;;;;21.95;56.20;101990.38;5104493;28;20485;-62
2021/06/27 02:47:57;;;;;;;1.48;1.48;;;;;;;21.93;56.52;101985.25;5105614;28;20024;-63
2021/06/27 02:50:23;;;;;;;1.88;1.58;;;;;;;21.92;56.30;101986.25;5105836;28;20051;-63
2021/06/27 02:52:49;;;;;;;1.20;1.20;;;;;;;21.94;56.26;101986.09;5104700;28;20036;-63
2021/06/27 02:55:14;;;;;;;1.30;1.30;;;;;;;21.94;56.19;101983.44;5104202;28;20043;-62
2021/06/27 02:57:41;;;;;;;1.25;1.25;;;;;;;21.92;56.35;101980.94;5106333;28;20058;-62
2021/06/27 03:00:14;;;;;;;1.35;1.25;;;;;;;21.94;56.45;101981.59;5065722;28;20035;-63
2021/06/27 03:02:40;;;;;;;1.35;1.35;;;;;;;21.93;56.32;101979.94;5086816;28;20373;-63
2021/06/27 03:05:07;;;;;;;1.20;1.20;;;;;;;21.93;56.47;101977.28;5106230;28;20041;-63
2021/06/27 03:07:33;;;;;;;1.17;1.17;;;;;;;21.90;56.47;101974.97;5102561;28;20389;-62
2021/06/27 03:09:58;;;;;;;1.10;1.10;;;;;;;21.92;56.13;101980.94;5086788;28;20040;-62
2021/06/27 03:12:24;;;;;;;1.35;1.35;;;;;;;21.92;56.63;101975.63;5105147;28;20370;-63
2021/06/27 03:14:49;;;;;;;1.30;1.30;;;;;;;21.86;56.48;101965.66;5104788;28;20032;-62
2021/06/27 03:17:15;;;;;;;1.35;1.35;;;;;;;21.91;56.36;101975.81;5105230;28;20035;-62
2021/06/27 03:19:40;;;;;;;1.15;1.10;;;;;;;21.91;56.36;101978.47;5102621;28;20396;-62
2021/06/27 03:22:06;;;;;;;1.40;1.40;;;;;;;21.90;56.23;101980.28;5103503;28;20697;-62
2021/06/27 03:24:31;;;;;;;1.10;1.10;;;;;;;21.91;56.27;101978.47;5105264;28;20039;-62
2021/06/27 03:26:57;;;;;;;1.30;1.30;;;;;;;21.91;56.51;101978.47;5105598;28;20431;-62
2021/06/27 03:29:23;;;;;;;1.05;1.05;;;;;;;21.89;56.50;101973.28;5103700;28;20031;-62
2021/06/27 03:31:48;;;;;;;1.33;1.27;;;;;;;21.90;56.53;101974.13;5086635;28;20040;-62
2021/06/27 03:34:14;;;;;;;1.27;1.27;;;;;;;21.90;56.22;101976.78;5104546;28;20023;-63
2021/06/27 03:36:39;;;;;;;1.05;1.05;;;;;;;21.90;56.33;101968.81;5101970;28;20046;-62
2021/06/27 03:39:09;;;;;;;1.45;1.35;;;;;;;21.88;56.57;101970.81;5102626;28;20040;-63
2021/06/27 03:41:40;;;;;;;0.95;0.95;;;;;;;21.89;56.44;101973.28;5104043;28;20061;-63
2021/06/27 03:44:06;;;;;;;1.10;1.10;;;;;;;21.86;56.40;101967.50;5103081;28;20078;-62
2021/06/27 03:46:32;;;;;;;1.25;1.25;;;;;;;21.89;56.22;101970.63;5105093;28;20523;-63
2021/06/27 03:48:58;;;;;;;1.27;1.27;;;;;;;21.90;56.23;101976.78;5104639;28;20051;-62
2021/06/27 03:51:24;;;;;;;1.27;1.27;;;;;;;21.90;56.45;101974.13;5104662;28;20501;-63
2021/06/27 03:53:50;;;;;;;0.80;0.80;;;;;;;21.88;56.16;101971.63;5087342;28;20023;-63
2021/06/27 03:56:17;;;;;;;1.10;1.10;;;;;;;21.89;56.33;101970.63;5104660;28;20066;-62
2021/06/27 03:58:45;;;;;;;1.10;1.10;;;;;;;21.89;56.37;101965.34;5100901;28;20047;-63
2021/06/27 04:01:10;;;;;;;1.17;1.17;;;;;;;21.89;56.32;101972.47;5103349;28;20032;-63
2021/06/27 04:03:36;;;;;;;1.10;1.10;;;;;;;21.90;56.42;101976.78;5086467;28;20031;-63
2021/06/27 04:06:03;;;;;;;0.95;0.95;;;;;;;21.89;56.00;101968.00;5104548;28;20425;-63
2021/06/27 04:08:29;;;;;;;1.10;1.10;;;;;;;21.89;56.17;101968.00;5103559;28;20168;-63
2021/06/27 04:10:57;;;;;;;1.17;1.17;;;;;;;21.89;56.20;101969.81;5104878;28;20497;-62
2021/06/27 04:13:30;;;;;;;1.08;0.98;;;;;;;21.90;56.36;101968.81;5101607;28;20046;-62
2021/06/27 04:15:56;;;;;;;1.15;1.15;;;;;;;21.89;56.32;101969.81;5104448;28;20035;-62
2021/06/27 04:18:23;;;;;;;1.10;1.10;;;;;;;21.90;56.54;101971.47;5104524;28;20035;-62
2021/06/27 04:20:50;;;;;;;1.00;1.00;;;;;;;21.89;56.30;101977.75;5103257;28;20047;-62
2021/06/27 04:23:16;;;;;;;1.10;1.10;;;;;;;21.89;56.27;101969.81;5103071;28;20035;-63
2021/06/27 04:25:42;;;;;;;1.17;1.17;;;;;;;21.88;56.31;101963.69;5104727;28;20096;-63
2021/06/27 04:28:08;;;;;;;1.00;1.00;;;;;;;21.88;56.16;101962.84;5085199;28;20039;-62
2021/06/27 04:30:38;;;;;;;1.20;1.20;;;;;;;21.90;56.10;101971.47;5103354;28;20411;-62
2021/06/27 04:33:09;;;;;;;1.02;1.02;;;;;;;21.89;56.25;101967.16;5084114;28;20568;-62
2021/06/27 04:35:36;;;;;;;1.05;1.05;;;;;;;21.92;56.28;101966.84;5086082;28;20050;-63
2021/06/27 04:38:03;;;;;;;0.98;0.98;;;;;;;21.92;56.32;101964.22;5104466;28;20445;-62
2021/06/27 04:40:29;;;;;;;1.05;1.05;;;;;;;21.92;56.03;101956.25;5085188;28;20039;-63
2021/06/27 04:42:54;;;;;;;1.05;1.05;;;;;;;21.91;56.10;101952.78;5102849;28;20430;-63
2021/06/27 04:45:20;;;;;;;1.38;1.38;;;;;;;21.91;56.47;101957.25;5103786;28;20036;-62
2021/06/27 04:47:46;;;;;;;1.48;1.38;;;;;;;21.91;55.95;101960.72;5103924;28;20036;-63
2021/06/27 04:50:12;;;;;;;1.13;1.13;;;;;;;21.92;56.12;101956.25;5103443;28;20389;-63
2021/06/27 04:52:38;;;;;;;0.90;0.90;;;;;;;21.92;56.28;101945.63;5103396;28;20096;-62
2021/06/27 04:55:05;;;;;;;1.10;1.10;;;;;;;21.89;55.93;101932.69;5085957;28;20028;-62
2021/06/27 04:57:32;;;;;;;1.25;1.25;;;;;;;21.92;56.37;101943.81;5103182;28;20036;-63
2021/06/27 04:59:57;;;;;;;1.10;1.10;;;;;;;21.93;55.94;101947.28;5100487;28;20123;-62
2021/06/27 05:02:23;;;;;;;0.90;0.90;;;;;;;21.92;56.08;101943.81;5103863;28;20035;-62
2021/06/27 05:04:48;;;;;;;1.23;1.20;;;;;;;21.93;56.27;101942.81;5105109;28;20101;-62
2021/06/27 05:07:14;;;;;;;1.00;1.00;;;;;;;21.94;56.20;101947.13;5100552;28;20032;-63
2021/06/27 05:09:40;;;;;;;1.40;1.30;;;;;;;21.94;56.08;101946.28;5108433;28;20050;-62
2021/06/27 05:12:06;;;;;;;1.00;1.00;;;;;;;21.93;56.02;101939.34;5106444;28;20480;-62
2021/06/27 05:14:32;;;;;;;0.80;0.80;;;;;;;21.95;56.22;101943.47;5105765;28;20024;-63
2021/06/27 05:16:58;;;;;;;1.20;1.20;;;;;;;21.96;55.93;101944.31;5108778;28;20051;-62
2021/06/27 05:19:24;;;;;;;0.90;0.90;;;;;;;21.95;55.97;101937.34;5106772;28;20156;-63
2021/06/27 05:21:49;;;;;;;0.98;0.98;;;;;;;21.96;56.07;101944.31;5107006;28;20036;-63
2021/06/27 05:24:15;;;;;;;1.00;1.00;;;;;;;21.97;56.08;101935.34;5107251;28;20040;-63
2021/06/27 05:26:40;;;;;;;1.33;1.10;;;;;;;21.97;55.88;101932.69;5104624;28;20048;-63
2021/06/27 05:29:06;;;;;;;1.00;1.00;;;;;;;21.97;56.17;101930.03;5089333;28;20044;-62
2021/06/27 05:31:33;;;;;;;1.48;1.38;;;;;;;21.92;55.82;101929.72;5105615;28;20035;-63
2021/06/27 05:33:59;;;;;;;1.17;1.15;;;;;;;21.98;56.09;101929.88;5107156;28;20027;-62
2021/06/27 05:36:25;;;;;;;1.00;1.00;;;;;;;21.98;55.90;101923.75;5106397;28;20533;-62
2021/06/27 05:38:51;;;;;;;1.02;1.02;;;;;;;21.99;55.88;101922.75;5106082;28;20126;-63
2021/06/27 05:41:16;;;;;;;1.20;1.20;;;;;;;21.99;55.75;101926.22;5106282;28;20067;-63
2021/06/27 05:43:42;;;;;;;1.00;1.00;;;;;;;22.00;55.70;101932.34;5105419;28;20104;-63
2021/06/27 05:46:07;;;;;;;1.15;1.05;;;;;;;21.99;55.70;101931.53;5107678;28;20036;-62
2021/06/27 05:48:33;;;;;;;1.23;1.23;;;;;;;22.00;56.19;101927.88;5106277;28;20043;-62
2021/06/27 05:50:59;;;;;;;0.90;0.90;;;;;;;22.00;55.79;101932.34;5106461;28;20637;-62
2021/06/27 05:53:24;;;;;;;1.00;1.00;;;;;;;22.02;55.60;101935.66;5104273;28;20039;-62
2021/06/27 05:56:08;;;;;;;1.00;1.00;;;;;;;22.00;55.76;101922.56;5102845;28;20089;-62
2021/06/27 05:58:35;;;;;;;1.20;1.20;;;;;;;22.03;55.78;101924.06;5086619;28;20035;-62
2021/06/27 06:01:01;;;;;;;1.00;1.00;;;;;;;22.05;55.72;101931.88;5089143;28;20071;-62
2021/06/27 06:03:26;;;;;;;1.02;1.02;;;;;;;22.05;55.59;101943.31;5105943;28;20108;-62
2021/06/27 06:05:52;;;;;;;0.88;0.88;;;;;;;22.04;55.88;101938.97;5105576;28;20035;-62
2021/06/27 06:08:17;;;;;;;1.15;1.15;;;;;;;22.06;55.71;101939.66;5106540;28;20050;-63
2021/06/27 06:10:43;;;;;;;1.02;1.02;;;;;;;22.06;55.47;101942.31;5103782;28;20051;-63
2021/06/27 06:13:08;;;;;;;0.98;0.98;;;;;;;22.06;55.85;101942.31;5107189;28;20039;-62
2021/06/27 06:15:34;;;;;;;1.02;1.02;;;;;;;22.03;55.81;101934.66;5106563;28;20073;-62
2021/06/27 06:17:59;;;;;;;1.20;1.20;;;;;;;22.08;55.51;101942.16;5105108;28;20031;-62
2021/06/27 06:20:25;;;;;;;1.10;1.10;;;;;;;22.08;55.85;101939.50;5104773;28;20404;-62
2021/06/27 06:22:50;;;;;;;1.13;1.13;;;;;;;22.09;55.65;101944.66;5088801;28;20035;-62
2021/06/27 06:25:16;;;;;;;1.20;1.20;;;;;;;22.08;55.89;101935.03;5105414;28;20058;-62
2021/06/27 06:27:41;;;;;;;1.00;1.00;;;;;;;22.10;55.65;101932.22;5086855;28;20054;-62
2021/06/27 06:30:07;;;;;;;1.10;1.10;;;;;;;22.09;55.95;101931.41;5102888;28;20042;-63
2021/06/27 06:32:33;;;;;;;1.20;1.20;;;;;;;22.08;55.54;101934.19;5105697;28;20096;-62
2021/06/27 06:34:58;;;;;;;1.33;1.23;;;;;;;22.10;55.71;101933.06;5104855;28;20031;-62
2021/06/27 06:37:24;;;;;;;0.90;0.90;;;;;;;22.11;55.51;101932.06;5105297;28;20062;-63
2021/06/27 06:39:49;;;;;;;1.15;1.15;;;;;;;22.12;55.47;101936.38;5104353;28;20031;-62
2021/06/27 06:42:15;;;;;;;0.90;0.90;;;;;;;22.12;55.94;101932.88;5104950;28;20508;-62
2021/06/27 06:44:40;;;;;;;0.90;0.90;;;;;;;22.13;55.79;101932.72;5104487;28;20034;-62
2021/06/27 06:47:06;;;;;;;1.10;1.10;;;;;;;22.12;55.48;101939.03;5106169;28;20039;-63
2021/06/27 06:49:31;;;;;;;1.00;1.00;;;;;;;22.15;55.50;101938.69;5104938;28;20101;-62
2021/06/27 06:51:57;;;;;;;1.20;1.20;;;;;;;22.15;55.64;101937.84;5106336;28;20088;-62
2021/06/27 06:54:22;;;;;;;1.48;1.38;;;;;;;22.15;55.58;101938.69;5105311;28;20035;-62
2021/06/27 06:56:48;;;;;;;1.40;1.30;;;;;;;22.17;55.84;101944.63;5085933;28;20146;-62
2021/06/27 06:59:14;;;;;;;1.40;1.30;;;;;;;22.17;55.55;101949.94;5087425;28;20062;-62
2021/06/27 07:01:39;;;;;;;1.05;1.05;;;;;;;22.19;55.76;101955.91;5105406;28;20040;-62
2021/06/27 07:04:05;;;;;;;1.10;1.10;;;;;;;22.20;55.39;101948.78;5086889;28;20031;-62
2021/06/27 07:06:31;;;;;;;1.00;1.00;;;;;;;22.20;55.43;101944.28;5103758;28;20043;-62
2021/06/27 07:08:56;;;;;;;1.42;1.33;;;;;;;22.25;55.36;101949.91;5105758;28;20077;-62
2021/06/27 07:11:22;;;;;;;1.27;1.27;;;;;;;22.27;55.59;101942.66;5104366;28;20420;-62
2021/06/27 07:13:47;;;;;;;1.10;1.10;;;;;;;22.31;55.34;101948.44;5105643;28;20031;-62
2021/06/27 07:16:13;;;;;;;1.30;1.30;;;;;;;22.35;55.07;101938.31;5098948;28;20756;-62
2021/06/27 07:18:38;;;;;;;1.00;1.00;;;;;;;22.39;55.13;101936.97;5105642;28;20039;-62
2021/06/27 07:21:04;;;;;;;1.08;1.08;;;;;;;22.43;55.11;101938.28;5103887;28;20064;-62
2021/06/27 07:23:30;;;;;;;1.35;1.25;;;;;;;22.48;54.96;101939.44;5103706;28;20035;-62
2021/06/27 07:25:56;;;;;;;1.08;1.00;;;;;;;22.47;54.85;101932.47;5103263;28;20559;-62
2021/06/27 07:28:22;;;;;;;1.10;1.10;;;;;;;22.54;55.08;101935.25;5087439;28;20120;-62
2021/06/27 07:30:47;;;;;;;0.73;0.73;;;;;;;22.57;54.90;101933.09;5102747;28;20039;-62
2021/06/27 07:33:15;;;;;;;1.25;1.23;;;;;;;22.60;54.55;101934.56;5086704;28;20389;-62
2021/06/27 07:35:40;;;;;;;1.20;1.20;;;;;;;22.63;54.68;101936.91;5100746;28;20036;-62
2021/06/27 07:38:06;;;;;;;1.45;1.35;;;;;;;22.68;54.71;101939.88;5105545;28;20051;-62
2021/06/27 07:40:31;;;;;;;1.00;1.00;;;;;;;22.71;54.66;101934.22;5104008;28;20062;-62
2021/06/27 07:42:57;;;;;;;1.05;1.05;;;;;;;22.73;54.57;101932.19;5104712;28;20043;-62
2021/06/27 07:45:22;;;;;;;1.02;1.02;;;;;;;22.76;54.53;101933.69;5103132;28;20027;-62
2021/06/27 07:47:48;;;;;;;0.95;0.95;;;;;;;22.77;54.43;101928.19;5104438;28;20047;-62
2021/06/27 07:50:14;;;;;;;1.08;1.08;;;;;;;22.83;54.50;101932.03;5104583;28;20055;-62
2021/06/27 07:52:39;;;;;;;1.10;1.10;;;;;;;22.82;54.19;101917.94;5104381;28;20043;-62
2021/06/27 07:55:07;;;;;;;1.33;1.23;;;;;;;22.90;54.09;101915.22;5103803;28;20043;-62
2021/06/27 07:57:32;;;;;;;1.05;1.05;;;;;;;22.93;54.33;101914.06;5104978;28;20035;-62
2021/06/27 07:59:58;;;;;;;1.00;1.00;;;;;;;22.92;54.21;101921.19;5104435;28;20480;-62
2021/06/27 08:02:23;;;;;;;0.90;0.90;;;;;;;22.92;54.35;101912.41;5104115;28;20461;-62
2021/06/27 08:04:49;;;;;;;1.00;1.00;;;;;;;22.96;54.32;101907.56;5101594;28;20123;-62
2021/06/27 08:07:14;;;;;;;0.95;0.95;;;;;;;23.00;54.11;101916.84;5102054;28;20039;-62
2021/06/27 08:09:40;;;;;;;1.20;1.20;;;;;;;23.01;54.28;101916.69;5102656;28;20044;-62
2021/06/27 08:12:06;;;;;;;1.20;1.20;;;;;;;23.04;54.36;101918.16;5105531;28;20040;-62
2021/06/27 08:14:32;;;;;;;0.85;0.85;;;;;;;23.05;54.17;101917.16;5085621;28;20412;-62
2021/06/27 08:16:57;;;;;;;0.80;0.80;;;;;;;23.07;54.28;101918.63;5102722;28;20039;-62
2021/06/27 08:19:23;;;;;;;1.00;1.00;;;;;;;23.08;54.20;101925.59;5104557;28;20024;-62
2021/06/27 08:21:48;;;;;;;1.02;1.02;;;;;;;23.04;54.13;101920.81;5103026;28;20047;-62
2021/06/27 08:24:14;;;;;;;0.80;0.80;;;;;;;23.05;54.05;101925.94;5101021;28;20032;-62
2021/06/27 08:26:40;;;;;;;0.98;0.98;;;;;;;23.02;54.17;101914.84;5103352;28;20059;-62
2021/06/27 08:29:06;;;;;;;1.10;1.10;;;;;;;23.01;54.12;101916.69;5069749;28;20200;-62
2021/06/27 08:31:32;;;;;;;1.40;1.30;;;;;;;23.02;54.14;101923.66;5098739;28;20123;-62
2021/06/27 08:33:57;;;;;;;1.08;1.08;;;;;;;23.03;54.32;101919.97;5103974;28;20102;-63
2021/06/27 08:36:23;;;;;;;1.08;1.08;;;;;;;23.05;54.35;101914.50;5085968;28;20047;-62
2021/06/27 08:38:49;;;;;;;1.20;1.20;;;;;;;23.05;54.41;101919.81;5103442;28;20039;-63
2021/06/27 08:41:18;;;;;;;0.90;0.90;;;;;;;23.01;54.39;101922.00;5103916;28;20048;-63
2021/06/27 08:43:44;;;;;;;0.70;0.70;;;;;;;23.03;54.36;101919.97;5087983;28;20048;-63
2021/06/27 08:46:12;;;;;;;1.10;1.10;;;;;;;23.06;54.43;101924.13;5108350;28;20031;-63
2021/06/27 08:48:39;;;;;;;1.20;1.20;;;;;;;23.08;54.10;101919.44;5104974;28;20047;-63
2021/06/27 08:51:09;;;;;;;0.75;0.75;;;;;;;23.09;53.99;101915.78;5105593;28;20481;-63
2021/06/27 08:53:36;;;;;;;1.05;1.05;;;;;;;23.11;54.29;101916.44;5105097;28;20447;-63
2021/06/27 08:56:06;;;;;;;1.08;1.08;;;;;;;23.13;54.27;101923.22;5084365;28;20126;-63
2021/06/27 08:58:37;;;;;;;1.15;1.15;;;;;;;23.08;54.33;101914.97;5102399;28;20028;-63
2021/06/27 09:01:06;;;;;;;1.27;1.27;;;;;;;23.14;54.29;101927.53;5102544;28;20496;-62
2021/06/27 09:03:32;;;;;;;1.50;1.40;;;;;;;23.12;54.25;101929.53;5100870;28;20031;-63
2021/06/27 09:05:58;;;;;;;2.17;1.92;;;;;;;23.13;54.12;101917.09;5103016;28;20136;-63
2021/06/27 09:08:24;;;;;;;2.33;2.13;;;;;;;23.14;54.08;101927.53;5101340;28;20115;-62
2021/06/27 09:10:50;;;;;;;1.75;1.65;;;;;;;23.17;54.19;101919.25;5101339;28;20043;-62
2021/06/27 09:13:16;;;;;;;1.48;1.40;;;;;;;23.18;54.35;101918.25;5100589;28;20136;-63
2021/06/27 09:15:41;;;;;;;1.85;1.75;;;;;;;23.19;54.23;101913.75;5086839;28;20042;-63
2021/06/27 09:18:16;;;;;;;2.08;1.88;;;;;;;23.19;54.27;101909.25;5082901;28;20047;-63
2021/06/27 09:20:49;;;;;;;1.50;1.40;;;;;;;23.11;54.02;101895.19;5086426;28;20073;-63
2021/06/27 09:23:17;;;;;;;1.70;1.60;;;;;;;23.19;54.13;101909.25;5104015;28;20051;-63
2021/06/27 09:25:44;;;;;;;2.38;1.77;;;;;;;23.19;54.27;101911.09;5099973;28;20032;-63
2021/06/27 09:28:19;;;;;;;2.30;2.13;;;;;;;23.18;54.31;101904.94;5082437;28;20039;-63
2021/06/27 09:30:45;;;;;;;2.20;2.00;;;;;;;23.17;54.48;101900.66;5104430;28;20036;-62
2021/06/27 09:33:14;;;;;;;2.00;1.90;;;;;;;23.18;54.58;101896.16;5104117;28;20114;-63
2021/06/27 09:35:46;;;;;;;1.33;1.33;;;;;;;23.18;54.36;101907.59;5108004;28;20119;-63
2021/06/27 09:38:19;;;;;;;1.73;1.52;;;;;;;23.18;54.33;101906.78;5085054;28;20035;-63
2021/06/27 09:40:44;;;;;;;1.90;1.80;;;;;;;23.17;54.30;101902.47;5101707;28;20040;-63
2021/06/27 09:43:10;;;;;;;1.65;1.55;;;;;;;23.19;54.47;101911.09;5095922;28;20517;-63
2021/06/27 09:46:12;;;;;;;1.60;1.50;;;;;;;23.18;54.49;101912.09;5098561;28;20032;-63
2021/06/27 09:48:58;;;;;;;1.70;1.60;;;;;;;23.21;54.56;101903.78;5100648;28;20039;-63
2021/06/27 09:51:26;;;;;;;1.60;1.50;;;;;;;23.15;54.50;101894.66;5104330;28;20044;-62
2021/06/27 09:53:52;;;;;;;1.85;1.75;;;;;;;23.19;54.35;101900.47;5105860;28;20662;-62
2021/06/27 09:56:20;;;;;;;1.67;1.58;;;;;;;23.19;54.53;101898.63;5102742;28;20118;-62
2021/06/27 09:58:59;;;;;;;1.88;1.77;;;;;;;23.19;54.38;101901.28;5099952;28;20028;-63
2021/06/27 10:01:25;;;;;;;1.55;1.45;;;;;;;23.20;54.27;101904.78;5099535;28;20036;-63
2021/06/27 10:03:56;;;;;;;1.92;1.83;;;;;;;23.19;54.65;101898.63;5097974;28;20043;-63
2021/06/27 10:06:30;;;;;;;2.35;2.05;;;;;;;23.17;54.54;101898.00;5104485;28;20117;-63
2021/06/27 10:09:08;;;;;;;2.10;1.90;;;;;;;23.17;54.48;101894.50;5104416;28;20039;-63
2021/06/27 10:11:33;;;;;;;1.60;1.50;;;;;;;23.19;54.63;101895.16;5104698;28;20163;-62
2021/06/27 10:14:09;;;;;;;2.00;1.90;;;;;;;23.18;54.59;101886.34;5106632;28;20028;-63
2021/06/27 10:16:35;;;;;;;2.63;2.00;;;;;;;23.18;54.58;101878.38;5105222;28;20491;-62
2021/06/27 10:19:03;;;;;;;1.63;1.52;;;;;;;23.18;54.47;101881.03;5104801;27;20127;-63
2021/06/27 10:21:30;;;;;;;1.80;1.70;;;;;;;23.15;54.46;101873.38;5104061;28;20042;-63
2021/06/27 10:23:57;;;;;;;1.70;1.60;;;;;;;23.18;54.36;101880.22;5102835;28;20038;-63
2021/06/27 10:26:24;;;;;;;2.25;1.80;;;;;;;23.17;54.54;101871.41;5105856;28;20058;-62
2021/06/27 10:28:52;;;;;;;1.70;1.60;;;;;;;23.17;54.75;101867.94;5106374;28;20063;-63
2021/06/27 10:31:22;;;;;;;2.00;1.90;;;;;;;23.19;54.45;101873.88;5102998;28;20480;-63
2021/06/27 10:33:49;;;;;;;2.28;2.10;;;;;;;23.19;54.43;101873.88;5105591;28;20059;-63
2021/06/27 10:36:26;;;;;;;2.20;2.00;;;;;;;23.18;54.35;101864.28;5103116;28;20055;-62
2021/06/27 10:38:52;;;;;;;2.60;2.40;;;;;;;23.20;54.41;101865.75;5105389;28;20049;-63
2021/06/27 10:41:18;;;;;;;1.92;1.83;;;;;;;23.19;54.52;101869.41;5105662;28;20043;-63
2021/06/27 10:43:55;;;;;;;2.15;2.05;;;;;;;23.20;54.47;101876.38;5104964;28;20125;-63
2021/06/27 10:46:47;;;;;;;2.40;2.20;;;;;;;23.20;54.52;101875.53;5105198;28;20036;-63
2021/06/27 10:49:31;;;;;;;2.53;2.33;;;;;;;23.20;54.50;101862.25;5104308;28;20039;-63
2021/06/27 10:52:11;;;;;;;2.50;2.30;;;;;;;23.20;54.75;101872.88;5104013;28;20051;-63
2021/06/27 10:54:44;;;;;;;1.85;1.75;;;;;;;23.18;54.95;101873.06;5104501;28;20044;-62
2021/06/27 10:57:11;;;;;;;1.80;1.67;;;;;;;23.19;54.77;101865.91;5106276;28;20038;-62
2021/06/27 10:59:51;;;;;;;2.33;2.13;;;;;;;23.19;54.61;101850.81;5105363;28;20028;-63
2021/06/27 11:02:18;;;;;;;2.00;1.90;;;;;;;23.21;54.52;101855.94;5106160;28;20390;-63
2021/06/27 11:04:50;;;;;;;2.38;2.20;;;;;;;23.21;54.48;101853.28;5096196;28;20083;-62
2021/06/27 11:07:31;;;;;;;2.40;2.20;;;;;;;23.21;54.44;101850.63;5091394;28;20126;-63
2021/06/27 11:10:19;;;;;;;2.05;1.95;;;;;;;23.21;54.69;101850.63;5105714;28;20502;-61
2021/06/27 11:13:00;;;;;;;2.50;2.30;;;;;;;23.19;54.55;101850.81;5101319;28;20516;-62
2021/06/27 11:15:33;;;;;;;2.47;1.98;;;;;;;23.20;54.75;101851.63;5096111;28;20054;-62
2021/06/27 11:18:02;;;;;;;2.35;2.17;;;;;;;23.19;54.46;101849.97;5096526;28;20039;-62
2021/06/27 11:20:33;;;;;;;2.58;2.38;;;;;;;23.20;54.39;101849.81;5098268;28;20031;-62
2021/06/27 11:22:59;;;;;;;2.10;2.00;;;;;;;23.19;54.86;101839.34;5102132;28;20475;-62
2021/06/27 11:25:36;;;;;;;2.30;2.20;;;;;;;23.19;54.68;101834.03;5102666;28;20037;-61